Time;durP1;ratioP1;P1;durP2;ratioP2;P2;SDS_P1;SDS_P2;PMS_P1;PMS_P2;Temp;Humidity;BMP_temperature;BMP_pressure;BME280_temperature;BME280_humidity;BME280_pressure;Samples;Min_cycle;Max_cycle;Signal;HPM_P1;HPM_P2
2022/06/30 00:00:00;;;;;;;3.70;1.30;;;;;;;28.96;32.28;101292.13;4914456;29;20056;-78
2022/06/30 00:02:28;;;;;;;4.70;1.42;;;;;;;28.68;33.04;101289.66;4913998;29;20060;-78
2022/06/30 00:04:57;;;;;;;1.98;1.35;;;;;;;28.39;33.38;101288.91;4913759;29;20478;-78
2022/06/30 00:07:25;;;;;;;1.40;1.23;;;;;;;28.36;35.64;101281.03;4912067;29;20048;-77
2022/06/30 00:09:54;;;;;;;1.63;1.35;;;;;;;28.49;35.20;101278.81;4911464;29;20140;-74
2022/06/30 00:12:22;;;;;;;3.75;1.38;;;;;;;28.63;36.53;101274.78;4911627;29;20495;-78
2022/06/30 00:14:51;;;;;;;2.70;1.23;;;;;;;28.73;36.33;101278.84;4908338;29;20060;-79
2022/06/30 00:17:21;;;;;;;3.28;1.20;;;;;;;28.74;36.98;101277.91;4914600;29;20063;-76
2022/06/30 00:19:50;;;;;;;3.38;1.30;;;;;;;28.71;36.29;101275.38;4906347;29;20048;-77
2022/06/30 00:22:18;;;;;;;3.17;1.23;;;;;;;28.74;35.39;101277.91;4905482;29;20418;-76
2022/06/30 00:24:47;;;;;;;1.90;1.50;;;;;;;28.78;34.86;101279.53;4915279;29;20062;-77
2022/06/30 00:27:16;;;;;;;4.32;1.55;;;;;;;28.84;34.86;101271.31;4925623;28;20052;-77
2022/06/30 00:29:45;;;;;;;3.17;1.30;;;;;;;28.89;35.02;101268.47;4932074;29;20052;-81
2022/06/30 00:32:13;;;;;;;2.42;1.20;;;;;;;28.80;34.35;101264.34;4931474;29;20546;-77
2022/06/30 00:34:43;;;;;;;4.53;1.15;;;;;;;28.55;35.59;101267.94;4930989;29;20439;-76
2022/06/30 00:37:12;;;;;;;2.22;1.40;;;;;;;28.48;34.70;101266.44;4924057;29;20058;-78
2022/06/30 00:39:41;;;;;;;2.95;1.40;;;;;;;28.50;34.99;101259.28;4916570;29;20051;-81
2022/06/30 00:42:09;;;;;;;1.98;1.70;;;;;;;28.50;36.26;101256.59;4929485;29;20516;-76
2022/06/30 00:44:38;;;;;;;4.28;3.40;;;;;;;28.48;37.45;101260.25;4925985;29;20482;-77
2022/06/30 00:47:07;;;;;;;2.70;1.90;;;;;;;28.37;35.67;101257.94;4930254;29;20455;-77
2022/06/30 00:49:36;;;;;;;2.38;1.40;;;;;;;28.26;36.38;101260.13;4937052;29;20043;-77
2022/06/30 00:52:11;;;;;;;2.13;1.30;;;;;;;28.22;37.02;101253.19;4932109;29;20062;-77
2022/06/30 00:54:41;;;;;;;7.30;1.50;;;;;;;28.25;37.37;101253.09;4930719;29;20510;-78
2022/06/30 00:57:11;;;;;;;2.65;1.30;;;;;;;28.26;37.79;101258.34;4932238;29;20047;-76
2022/06/30 00:59:42;;;;;;;2.88;1.50;;;;;;;28.25;36.76;101253.94;4931855;29;20047;-76
2022/06/30 01:02:11;;;;;;;1.60;1.40;;;;;;;28.28;36.93;101259.16;4925207;29;20048;-78
2022/06/30 01:04:42;;;;;;;4.47;1.20;;;;;;;28.34;36.95;101255.41;4926298;29;20059;-76
2022/06/30 01:07:12;;;;;;;4.60;1.23;;;;;;;28.36;36.26;101253.56;4932036;29;20126;-76
2022/06/30 01:15:21;;;;;;;2.03;1.17;;;;;;;28.34;36.99;101244.78;4896222;29;20545;-76
2022/06/30 01:17:52;;;;;;;2.53;1.08;;;;;;;28.34;35.74;101252.75;4928766;29;20060;-74
2022/06/30 01:20:27;;;;;;;1.90;1.10;;;;;;;28.32;35.24;101254.59;4931121;29;20048;-72
2022/06/30 01:22:58;;;;;;;2.30;1.10;;;;;;;28.29;35.89;101260.00;4928784;29;20294;-73
2022/06/30 01:25:30;;;;;;;2.47;1.20;;;;;;;28.28;37.61;101250.31;4938802;29;20051;-74
2022/06/30 01:27:59;;;;;;;3.17;0.95;;;;;;;28.24;35.62;101246.88;4920609;28;20063;-75
2022/06/30 01:30:28;;;;;;;1.63;1.00;;;;;;;28.16;37.14;101263.13;4913009;29;20051;-76
2022/06/30 01:32:56;;;;;;;0.93;0.82;;;;;;;28.08;36.73;101249.22;4902995;29;20362;-76
2022/06/30 01:35:25;;;;;;;1.33;0.90;;;;;;;28.12;37.17;101248.19;4907526;29;20044;-75
2022/06/30 01:37:58;;;;;;;1.70;0.95;;;;;;;28.18;35.06;101250.63;4903699;29;20096;-76
2022/06/30 01:40:28;;;;;;;3.42;1.10;;;;;;;28.23;37.37;101254.94;4913222;29;20123;-74
2022/06/30 01:42:56;;;;;;;3.05;1.20;;;;;;;28.28;37.95;101252.97;4904759;29;20100;-73
2022/06/30 01:45:25;;;;;;;6.30;1.50;;;;;;;28.33;37.55;101248.34;4906554;29;20052;-74
2022/06/30 01:47:55;;;;;;;3.67;1.10;;;;;;;28.37;36.35;101252.63;4903525;29;20195;-74
2022/06/30 01:50:26;;;;;;;5.70;1.23;;;;;;;28.18;35.24;101247.97;4919722;29;20112;-76
2022/06/30 01:52:55;;;;;;;3.85;1.20;;;;;;;28.00;34.99;101253.97;4904603;29;20051;-74
2022/06/30 01:55:25;;;;;;;1.38;1.00;;;;;;;27.83;36.20;101256.28;4912681;29;20481;-74
2022/06/30 01:57:54;;;;;;;2.75;1.23;;;;;;;27.66;36.38;101255.09;4911095;29;20055;-75
2022/06/30 02:00:25;;;;;;;3.05;1.60;;;;;;;27.46;37.90;101261.06;4909229;29;20738;-75
2022/06/30 02:02:54;;;;;;;4.75;1.90;;;;;;;27.36;38.96;101252.53;4913704;29;20084;-74
2022/06/30 02:05:26;;;;;;;3.00;2.22;;;;;;;27.23;38.24;101253.84;4919824;29;20079;-75
2022/06/30 02:07:55;;;;;;;;;;;;;;;27.13;37.92;101257.69;4914472;29;20104;-75
2022/06/30 02:10:26;;;;;;;2.70;1.98;;;;;;;27.02;39.25;101254.50;4908285;29;19989;-75
2022/06/30 02:12:54;;;;;;;1.93;1.30;;;;;;;26.90;39.25;101247.78;4915650;29;20111;-75
2022/06/30 02:15:24;;;;;;;2.58;1.63;;;;;;;26.79;39.91;101253.41;4911185;29;20495;-75
2022/06/30 02:17:55;;;;;;;1.80;1.58;;;;;;;26.70;40.94;101251.03;4905038;29;20052;-76
2022/06/30 02:20:25;;;;;;;2.17;1.38;;;;;;;26.60;41.21;101250.44;4907216;29;20059;-75
2022/06/30 02:22:55;;;;;;;3.80;1.73;;;;;;;26.53;40.49;101252.38;4914213;29;20058;-76
2022/06/30 02:25:26;;;;;;;1.73;1.23;;;;;;;26.43;40.23;101248.22;4914077;29;20056;-75
2022/06/30 02:28:05;;;;;;;2.43;1.40;;;;;;;26.42;41.01;101259.75;4923595;28;20553;-77
2022/06/30 02:30:34;;;;;;;1.80;1.35;;;;;;;26.39;41.26;101249.25;4932080;29;20089;-77
2022/06/30 02:33:02;;;;;;;3.80;1.63;;;;;;;26.36;41.07;101244.00;4936800;29;20103;-76
2022/06/30 02:35:31;;;;;;;2.30;1.67;;;;;;;26.31;40.90;101254.75;4930699;29;20055;-77
2022/06/30 02:37:59;;;;;;;2.90;1.35;;;;;;;26.29;41.16;101253.06;4935398;29;20120;-76
2022/06/30 02:40:30;;;;;;;4.50;2.35;;;;;;;26.26;41.85;101254.00;4932373;29;20052;-74
2022/06/30 02:42:58;;;;;;;3.33;1.50;;;;;;;26.20;41.35;101253.31;4928972;29;20063;-74
2022/06/30 02:45:27;;;;;;;3.95;1.65;;;;;;;26.10;41.14;101256.22;4929819;29;20142;-74
2022/06/30 02:47:55;;;;;;;1.73;1.10;;;;;;;26.00;41.69;101253.84;4924341;29;20107;-72
2022/06/30 02:50:24;;;;;;;1.45;1.00;;;;;;;25.87;42.55;101251.53;4930745;29;20086;-73
2022/06/30 02:52:52;;;;;;;3.03;1.40;;;;;;;25.80;42.80;101257.00;4930623;29;20052;-74
2022/06/30 02:55:21;;;;;;;1.85;1.40;;;;;;;25.73;42.85;101260.72;4930883;29;20055;-74
2022/06/30 02:57:51;;;;;;;5.00;1.42;;;;;;;25.59;43.43;101261.94;4928759;29;20056;-76
2022/06/30 03:00:20;;;;;;;5.68;1.30;;;;;;;25.39;43.53;101258.91;4930874;29;20047;-76
2022/06/30 03:02:49;;;;;;;3.40;1.40;;;;;;;25.26;43.80;101261.81;4924113;29;20140;-74
2022/06/30 03:05:17;;;;;;;2.40;1.10;;;;;;;25.17;44.65;101261.16;4933201;29;20055;-78
2022/06/30 03:07:46;;;;;;;2.20;1.48;;;;;;;25.10;44.56;101265.72;4927469;29;20078;-75
2022/06/30 03:10:14;;;;;;;3.15;1.48;;;;;;;24.95;44.49;101266.06;4928381;29;20051;-76
2022/06/30 03:12:43;;;;;;;5.25;1.30;;;;;;;24.80;45.67;101262.84;4923073;29;20060;-77
2022/06/30 03:15:13;;;;;;;1.40;1.30;;;;;;;24.71;45.85;101264.81;4924643;29;20059;-75
2022/06/30 03:17:42;;;;;;;3.03;1.23;;;;;;;24.63;45.27;101262.34;4933274;29;20044;-75
2022/06/30 03:20:12;;;;;;;2.92;1.30;;;;;;;24.53;46.04;101263.41;4932540;29;20050;-75
2022/06/30 03:22:40;;;;;;;1.60;0.98;;;;;;;24.40;45.89;101278.66;4929493;29;20047;-76
2022/06/30 03:25:09;;;;;;;1.73;1.10;;;;;;;24.26;46.81;101278.91;4929704;29;20045;-75
2022/06/30 03:27:37;;;;;;;1.83;1.10;;;;;;;24.12;46.58;101267.69;4921202;28;20060;-74
2022/06/30 03:30:07;;;;;;;2.60;1.20;;;;;;;24.07;47.26;101281.00;4928625;29;20491;-75
2022/06/30 03:32:37;;;;;;;1.70;1.20;;;;;;;23.96;46.98;101289.16;4932000;29;20131;-75
2022/06/30 03:35:08;;;;;;;1.55;1.00;;;;;;;23.83;47.53;101293.75;4933186;29;20091;-77
2022/06/30 03:37:37;;;;;;;4.03;1.40;;;;;;;23.68;47.18;101295.75;4932962;29;20059;-75
2022/06/30 03:40:06;;;;;;;4.70;1.38;;;;;;;23.55;48.30;101298.59;4932380;29;20051;-74
2022/06/30 03:42:35;;;;;;;2.45;1.10;;;;;;;23.39;47.50;101302.38;4929576;29;20054;-75
2022/06/30 03:45:03;;;;;;;3.38;1.30;;;;;;;23.24;48.20;101298.16;4931849;29;20482;-75
2022/06/30 03:47:32;;;;;;;2.03;1.20;;;;;;;23.14;49.19;101313.28;4939591;29;20063;-77
2022/06/30 03:50:02;;;;;;;1.65;1.30;;;;;;;23.03;48.59;101309.91;4937108;29;20058;-74
2022/06/30 03:52:30;;;;;;;3.85;1.20;;;;;;;22.93;49.15;101318.78;4927736;29;20494;-75
2022/06/30 03:54:59;;;;;;;3.60;1.85;;;;;;;22.82;49.13;101310.16;4920531;29;20067;-75
2022/06/30 03:57:27;;;;;;;2.58;1.25;;;;;;;22.68;49.17;101319.09;4932894;29;20490;-75
2022/06/30 03:59:56;;;;;;;4.50;1.00;;;;;;;22.52;49.21;101317.53;4929677;29;20051;-74
2022/06/30 04:02:25;;;;;;;3.33;1.55;;;;;;;22.38;49.81;101323.81;4929681;29;20047;-75
2022/06/30 04:04:53;;;;;;;2.72;1.30;;;;;;;22.28;50.21;101319.53;4927674;29;20131;-74
2022/06/30 04:07:23;;;;;;;3.22;0.98;;;;;;;22.14;50.30;101321.41;4930053;29;20050;-74
2022/06/30 04:09:52;;;;;;;2.80;1.00;;;;;;;22.00;50.67;101323.28;4927782;29;20611;-72
2022/06/30 04:12:20;;;;;;;3.53;1.30;;;;;;;21.87;51.45;101328.63;4928077;29;20433;-74
2022/06/30 04:14:48;;;;;;;1.77;1.02;;;;;;;21.75;51.22;101328.75;4928966;29;20079;-73
2022/06/30 04:17:17;;;;;;;2.05;1.10;;;;;;;21.67;51.77;101333.19;4930068;29;20131;-73
2022/06/30 04:19:45;;;;;;;4.53;1.70;;;;;;;21.58;51.43;101339.41;4929620;29;20087;-73
2022/06/30 04:22:14;;;;;;;1.35;1.10;;;;;;;21.49;52.00;101337.72;4927486;29;20535;-73
2022/06/30 04:24:44;;;;;;;1.45;1.13;;;;;;;21.41;52.20;101339.50;4937624;29;20040;-73
2022/06/30 04:27:12;;;;;;;2.20;1.55;;;;;;;21.29;51.36;101342.19;4924679;28;20087;-72
2022/06/30 04:29:40;;;;;;;1.65;1.10;;;;;;;21.18;52.23;101346.63;4929174;29;20043;-73
2022/06/30 04:34:54;;;;;;;1.15;0.90;;;;;;;21.02;52.82;101356.34;4928122;29;20422;-72
2022/06/30 04:37:22;;;;;;;3.67;1.42;;;;;;;20.93;52.92;101359.88;4930009;29;20465;-73
2022/06/30 04:41:23;;;;;;;1.30;1.20;;;;;;;20.84;53.04;101362.53;4923517;29;20054;-74
2022/06/30 04:42:41;;;;;;;1.98;0.95;;;;;;;20.75;54.02;101365.19;4925743;29;20044;-72
2022/06/30 04:45:10;;;;;;;5.78;1.27;;;;;;;20.65;53.99;101365.22;4929036;29;20055;-74
2022/06/30 04:47:39;;;;;;;1.77;1.17;;;;;;;20.60;53.43;101364.38;4917790;29;20052;-73
2022/06/30 04:50:08;;;;;;;1.42;1.00;;;;;;;20.55;53.87;101380.97;4934469;29;20047;-73
2022/06/30 04:52:37;;;;;;;3.40;1.20;;;;;;;20.50;54.40;101378.34;4917970;29;20075;-73
2022/06/30 04:55:08;;;;;;;3.13;1.33;;;;;;;20.42;54.29;101374.88;4930601;29;20058;-74
2022/06/30 04:57:37;;;;;;;2.47;1.20;;;;;;;20.37;54.26;101381.91;4922523;29;20138;-75
2022/06/30 05:00:07;;;;;;;1.67;1.30;;;;;;;20.31;54.32;101382.78;4931752;29;20071;-73
2022/06/30 05:02:35;;;;;;;1.63;1.30;;;;;;;20.24;55.26;101381.91;4932036;29;20075;-74
2022/06/30 05:05:04;;;;;;;1.50;1.08;;;;;;;20.18;55.04;101388.91;4920689;29;20581;-73
2022/06/30 05:07:32;;;;;;;2.28;1.00;;;;;;;20.08;55.09;101381.00;4918594;29;20086;-74
2022/06/30 05:10:01;;;;;;;2.63;1.10;;;;;;;20.02;55.85;101386.28;4919267;29;20047;-73
2022/06/30 05:12:31;;;;;;;2.40;1.10;;;;;;;19.96;55.53;101382.78;4924441;29;20410;-73
2022/06/30 05:15:08;;;;;;;1.70;1.13;;;;;;;19.88;55.66;101388.91;4916472;29;20059;-75
2022/06/30 05:17:36;;;;;;;1.75;1.10;;;;;;;19.81;55.81;101387.16;4914720;29;20089;-73
2022/06/30 05:20:06;;;;;;;3.17;1.13;;;;;;;19.73;56.21;101377.50;4927607;29;20135;-74
2022/06/30 05:22:35;;;;;;;1.35;1.00;;;;;;;19.67;56.31;101381.81;4915052;29;20131;-74
2022/06/30 05:28:03;;;;;;;2.22;1.10;;;;;;;19.51;56.21;101376.53;4936619;28;20057;-72
2022/06/30 05:30:32;;;;;;;1.88;1.40;;;;;;;19.40;56.73;101374.78;4932103;29;20070;-74
2022/06/30 05:33:00;;;;;;;3.33;1.25;;;;;;;19.34;56.83;101372.13;4932185;29;20054;-72
2022/06/30 05:35:29;;;;;;;1.50;1.20;;;;;;;19.27;57.32;101378.22;4931862;29;20075;-72
2022/06/30 05:37:57;;;;;;;3.20;1.30;;;;;;;19.21;57.26;101372.94;4929226;29;20044;-71
2022/06/30 05:40:26;;;;;;;4.82;1.48;;;;;;;19.17;57.24;101386.91;4922501;29;20527;-74
2022/06/30 05:42:56;;;;;;;1.83;1.00;;;;;;;19.14;57.25;101381.66;4929647;29;20609;-74
2022/06/30 05:45:24;;;;;;;1.70;1.05;;;;;;;19.10;57.05;101387.75;4934747;29;20563;-74
2022/06/30 05:47:54;;;;;;;2.20;1.33;;;;;;;18.94;57.70;101371.94;4921474;29;20055;-73
2022/06/30 05:50:23;;;;;;;3.20;1.17;;;;;;;18.96;57.17;101378.06;4936288;29;20094;-76
2022/06/30 05:52:52;;;;;;;1.70;1.17;;;;;;;18.87;57.40;101391.13;4931398;29;20052;-75
2022/06/30 05:55:20;;;;;;;2.92;1.35;;;;;;;18.81;56.71;101378.00;4934416;29;20050;-73
2022/06/30 05:57:54;;;;;;;1.95;1.33;;;;;;;18.72;57.32;101368.31;4931281;29;20072;-73
2022/06/30 06:00:25;;;;;;;1.88;1.10;;;;;;;18.65;57.35;101381.38;4936763;29;20091;-73
2022/06/30 06:02:53;;;;;;;1.40;1.08;;;;;;;18.58;57.32;101383.09;4934100;29;20054;-73
2022/06/30 06:05:22;;;;;;;2.63;1.10;;;;;;;18.52;57.16;101391.78;4939064;29;20106;-74
2022/06/30 06:07:51;;;;;;;1.73;1.13;;;;;;;18.45;57.33;101381.25;4929320;29;20121;-77
2022/06/30 06:10:20;;;;;;;1.55;1.40;;;;;;;18.33;57.91;101379.41;4932075;29;20130;-74
2022/06/30 06:12:48;;;;;;;1.73;1.10;;;;;;;18.26;58.88;101377.63;4932572;29;20043;-75
2022/06/30 06:15:17;;;;;;;2.40;1.20;;;;;;;18.24;58.72;101385.47;4928785;29;20052;-73
2022/06/30 06:17:49;;;;;;;1.27;1.10;;;;;;;18.20;58.47;101379.31;4930066;29;20573;-73
2022/06/30 06:20:19;;;;;;;1.75;1.30;;;;;;;18.16;58.43;101382.78;4931254;29;20107;-73
2022/06/30 06:22:48;;;;;;;3.15;1.85;;;;;;;18.10;58.41;101390.59;4928982;29;20087;-75
2022/06/30 06:25:17;;;;;;;2.20;1.40;;;;;;;18.06;58.93;101386.19;4931045;29;20503;-73
2022/06/30 06:29:05;;;;;;;1.77;1.20;;;;;;;17.99;59.62;101384.38;4928325;28;20148;-73
2022/06/30 06:30:35;;;;;;;2.45;1.20;;;;;;;17.94;59.47;101391.31;4926370;29;20040;-74
2022/06/30 06:33:05;;;;;;;1.23;1.00;;;;;;;17.91;58.78;101386.94;4927935;29;20059;-74
2022/06/30 06:35:33;;;;;;;1.67;1.10;;;;;;;17.85;58.22;101396.47;4925524;29;20134;-74
2022/06/30 06:38:02;;;;;;;2.50;1.15;;;;;;;17.83;58.65;101395.56;4927188;29;20090;-76
2022/06/30 06:40:31;;;;;;;0.95;0.85;;;;;;;17.77;58.58;101389.38;4934449;29;20055;-75
2022/06/30 06:42:59;;;;;;;3.03;1.17;;;;;;;17.74;59.21;101394.56;4942474;29;20122;-75
2022/06/30 06:45:28;;;;;;;2.33;1.25;;;;;;;17.69;59.23;101396.25;4931251;29;20078;-74
2022/06/30 06:47:56;;;;;;;1.20;1.00;;;;;;;17.65;58.96;101394.47;4934380;29;20047;-74
2022/06/30 06:50:26;;;;;;;2.00;1.10;;;;;;;17.59;59.31;101392.69;4933855;29;20103;-74
2022/06/30 06:52:55;;;;;;;2.67;1.08;;;;;;;17.53;60.36;101396.97;4926337;29;20150;-74
2022/06/30 06:55:23;;;;;;;2.85;1.48;;;;;;;17.44;60.68;101396.88;4935244;29;20075;-74
2022/06/30 06:57:51;;;;;;;1.88;1.17;;;;;;;17.38;60.20;101409.03;4933860;29;20131;-74
2022/06/30 07:00:20;;;;;;;2.63;0.88;;;;;;;17.33;59.43;101405.44;4923622;29;20111;-74
2022/06/30 07:02:49;;;;;;;1.25;1.02;;;;;;;17.32;60.58;101403.69;4916495;29;20224;-74
2022/06/30 07:05:17;;;;;;;2.03;1.30;;;;;;;17.28;61.29;101403.66;4915782;29;20055;-75
2022/06/30 07:07:47;;;;;;;1.95;1.20;;;;;;;17.26;62.21;101401.00;4927455;29;20051;-74
2022/06/30 07:10:15;;;;;;;2.30;1.17;;;;;;;17.26;62.20;101406.22;4933623;29;20410;-75
2022/06/30 07:12:44;;;;;;;1.10;0.82;;;;;;;17.21;62.14;101402.69;4928598;29;20107;-74
2022/06/30 07:15:12;;;;;;;2.10;1.10;;;;;;;17.16;62.65;101405.25;4928522;29;20052;-74
2022/06/30 07:17:41;;;;;;;1.40;0.95;;;;;;;17.10;62.84;101399.06;4933738;29;20099;-74
2022/06/30 07:20:11;;;;;;;1.42;0.90;;;;;;;17.09;62.58;101410.38;4932749;29;20139;-75
2022/06/30 07:22:39;;;;;;;2.03;0.90;;;;;;;17.05;64.91;101408.59;4933063;29;20134;-74
2022/06/30 07:25:10;;;;;;;3.65;1.10;;;;;;;17.02;63.71;101405.91;4942928;29;20078;-74
2022/06/30 07:27:39;;;;;;;1.10;0.98;;;;;;;16.96;63.21;101406.72;4929904;28;20134;-74
2022/06/30 07:30:08;;;;;;;1.45;0.95;;;;;;;16.94;63.76;101409.31;4936257;28;20044;-74
2022/06/30 07:32:37;;;;;;;2.08;1.02;;;;;;;16.93;63.18;101407.56;4924443;29;20050;-74
2022/06/30 07:35:07;;;;;;;1.40;0.90;;;;;;;16.90;62.30;101407.50;4932334;29;20044;-74
2022/06/30 07:37:39;;;;;;;1.30;0.90;;;;;;;16.89;63.21;101410.97;4936852;29;20050;-74
2022/06/30 07:40:11;;;;;;;1.73;0.85;;;;;;;16.85;62.81;101414.41;4937050;29;20051;-74
2022/06/30 07:42:39;;;;;;;0.90;0.75;;;;;;;16.81;62.38;101409.97;4932394;29;20103;-75
2022/06/30 07:45:10;;;;;;;1.23;0.80;;;;;;;16.76;62.68;101414.22;4932600;29;20079;-74
2022/06/30 07:47:41;;;;;;;1.30;1.10;;;;;;;16.75;63.13;101415.09;4918182;29;20072;-74
2022/06/30 07:50:10;;;;;;;1.35;0.90;;;;;;;16.72;62.41;101415.03;4939207;29;20275;-75
2022/06/30 07:52:38;;;;;;;0.80;0.80;;;;;;;16.69;62.82;101413.25;4928383;29;20043;-75
2022/06/30 07:55:08;;;;;;;2.88;0.90;;;;;;;16.63;64.79;101420.13;4933164;29;20051;-74
2022/06/30 07:57:42;;;;;;;2.03;1.02;;;;;;;16.55;64.85;101415.66;4928570;29;20052;-75
2022/06/30 08:00:12;;;;;;;1.13;0.80;;;;;;;16.51;64.86;101413.84;4937041;29;20051;-75
2022/06/30 08:02:41;;;;;;;1.48;1.00;;;;;;;16.49;64.96;101414.69;4930580;29;20139;-75
2022/06/30 08:05:10;;;;;;;1.52;0.98;;;;;;;16.47;65.17;101412.06;4930740;29;20498;-75
2022/06/30 08:07:39;;;;;;;1.10;0.88;;;;;;;16.45;65.25;101411.16;4933280;29;20051;-75
2022/06/30 08:10:08;;;;;;;1.23;0.95;;;;;;;16.42;64.23;101411.09;4921688;29;20048;-75
2022/06/30 08:12:39;;;;;;;1.05;0.82;;;;;;;16.40;65.46;101415.44;4933160;29;20056;-74
2022/06/30 08:15:08;;;;;;;1.42;0.93;;;;;;;16.35;64.62;101411.88;4929804;29;20545;-75
2022/06/30 08:17:37;;;;;;;1.55;1.10;;;;;;;16.32;64.64;101406.59;4932883;29;20051;-74
2022/06/30 08:20:07;;;;;;;1.30;0.77;;;;;;;16.28;64.45;101405.66;4930860;29;20561;-74
2022/06/30 08:22:35;;;;;;;2.22;1.08;;;;;;;16.24;63.85;101409.09;4916670;29;20056;-75
2022/06/30 08:25:05;;;;;;;2.10;1.10;;;;;;;16.22;64.67;101415.16;4933448;29;20055;-75
2022/06/30 08:27:34;;;;;;;3.10;0.95;;;;;;;16.19;64.83;101410.72;4930745;28;20048;-74
2022/06/30 08:30:04;;;;;;;1.70;1.00;;;;;;;16.17;64.12;101401.13;4929923;29;20517;-74
2022/06/30 08:32:32;;;;;;;1.50;0.85;;;;;;;16.15;64.63;101408.03;4938015;28;20043;-74
2022/06/30 08:35:01;;;;;;;2.05;0.70;;;;;;;16.12;64.59;101404.53;4929755;29;20577;-74
2022/06/30 08:37:29;;;;;;;4.15;1.00;;;;;;;16.12;64.19;101403.66;4935830;29;20561;-73
2022/06/30 08:42:44;;;;;;;1.65;0.77;;;;;;;16.08;64.98;101405.34;4917955;29;20083;-74
2022/06/30 08:45:17;;;;;;;2.35;0.80;;;;;;;16.05;65.06;101402.66;4933137;29;20052;-74
2022/06/30 08:47:46;;;;;;;1.02;0.63;;;;;;;16.03;64.70;101411.31;4931938;29;20490;-74
2022/06/30 08:50:16;;;;;;;1.38;1.27;;;;;;;16.02;64.95;101413.06;4932843;29;20107;-75
2022/06/30 08:52:48;;;;;;;2.72;1.10;;;;;;;16.00;65.00;101409.53;4928057;29;20594;-74
2022/06/30 08:55:18;;;;;;;1.05;0.73;;;;;;;15.97;64.94;101414.72;4923328;29;20056;-73
2022/06/30 08:57:47;;;;;;;0.85;0.70;;;;;;;15.94;64.67;101419.84;4930538;29;20047;-74
2022/06/30 09:00:19;;;;;;;1.92;0.82;;;;;;;15.90;65.20;101415.47;4922619;29;20075;-74
2022/06/30 09:02:48;;;;;;;1.05;0.90;;;;;;;15.87;65.97;101413.69;4921125;29;20151;-74
2022/06/30 09:05:17;;;;;;;1.33;0.75;;;;;;;15.85;65.44;101422.31;4927232;29;20498;-74
2022/06/30 09:07:45;;;;;;;1.50;0.60;;;;;;;15.83;65.94;101416.19;4937315;28;20053;-74
2022/06/30 09:10:14;;;;;;;1.25;0.73;;;;;;;15.81;66.04;101420.50;4928121;29;20086;-75
2022/06/30 09:12:56;;;;;;;1.00;0.60;;;;;;;15.80;66.05;101418.72;4941436;29;20215;-74
2022/06/30 09:15:29;;;;;;;1.30;0.93;;;;;;;15.77;66.16;101426.50;4935723;29;20055;-74
2022/06/30 09:17:58;;;;;;;1.70;0.93;;;;;;;15.75;66.56;101423.00;4936403;29;20494;-74
2022/06/30 09:20:35;;;;;;;0.85;0.68;;;;;;;15.70;66.79;101425.47;4931623;29;20044;-75
2022/06/30 09:23:21;;;;;;;3.20;0.88;;;;;;;15.66;66.60;101424.53;4926124;29;20062;-74
2022/06/30 09:25:51;;;;;;;1.33;0.98;;;;;;;15.63;67.08;101421.88;4922692;29;20143;-74
2022/06/30 09:28:40;;;;;;;1.55;0.93;;;;;;;15.60;66.62;101414.00;4925849;28;20048;-75
2022/06/30 09:31:11;;;;;;;0.60;0.60;;;;;;;15.58;66.36;101415.69;4922090;29;20048;-74
2022/06/30 09:33:40;;;;;;;2.03;0.70;;;;;;;15.56;66.21;101412.19;4922048;29;20124;-73
2022/06/30 09:36:23;;;;;;;0.90;0.80;;;;;;;15.52;66.81;101410.34;4930751;29;20050;-74
2022/06/30 09:39:02;;;;;;;1.48;0.95;;;;;;;15.49;67.63;101419.00;4924916;29;20044;-74
2022/06/30 09:41:33;;;;;;;0.95;0.65;;;;;;;15.44;66.83;101410.22;4919003;29;20108;-75
2022/06/30 09:44:01;;;;;;;0.85;0.77;;;;;;;15.42;67.69;101416.25;4930132;29;20066;-74
2022/06/30 09:46:32;;;;;;;1.08;0.70;;;;;;;15.39;68.39;101418.78;4930320;29;20494;-75
2022/06/30 09:49:00;;;;;;;1.27;0.88;;;;;;;15.37;68.56;101423.06;4929393;29;20124;-75
2022/06/30 09:51:32;;;;;;;0.50;0.50;;;;;;;15.32;67.93;101422.97;4930186;29;20040;-74
2022/06/30 09:54:08;;;;;;;1.52;0.98;;;;;;;15.30;68.50;101416.84;4926876;29;20139;-73
2022/06/30 09:56:37;;;;;;;1.05;0.95;;;;;;;15.26;68.83;101415.94;4930840;29;20051;-74
2022/06/30 09:59:07;;;;;;;0.80;0.70;;;;;;;15.23;67.89;101423.69;4933771;29;20047;-75
2022/06/30 10:01:57;;;;;;;0.80;0.63;;;;;;;15.20;68.07;101423.59;4933300;29;20082;-75
2022/06/30 10:04:25;;;;;;;1.30;0.88;;;;;;;15.17;69.40;101422.69;4929863;29;20047;-75
2022/06/30 10:07:00;;;;;;;1.08;0.70;;;;;;;15.15;68.89;101417.41;4926803;29;20506;-74
2022/06/30 10:09:29;;;;;;;6.47;0.82;;;;;;;15.11;68.61;101419.94;4931350;29;20062;-74
2022/06/30 10:11:58;;;;;;;0.93;0.68;;;;;;;15.06;70.15;101430.25;4938482;29;20060;-74
2022/06/30 10:14:31;;;;;;;1.13;0.82;;;;;;;15.01;69.76;101426.69;4921875;29;20059;-74
2022/06/30 10:17:03;;;;;;;1.13;1.00;;;;;;;14.96;69.39;101423.09;4928538;29;20055;-75
2022/06/30 10:19:31;;;;;;;0.60;0.50;;;;;;;14.94;69.45;101432.59;4920905;29;20116;-75
2022/06/30 10:22:01;;;;;;;2.28;0.77;;;;;;;14.92;69.45;101432.56;4932773;29;20052;-74
2022/06/30 10:24:30;;;;;;;1.67;0.90;;;;;;;14.86;69.49;101433.28;4934541;29;20139;-73
2022/06/30 10:27:14;;;;;;;0.98;0.77;;;;;;;14.83;69.58;101430.63;4934017;29;20123;-74
2022/06/30 10:29:47;;;;;;;0.85;0.65;;;;;;;14.79;69.42;101431.38;4927532;29;20123;-74
2022/06/30 10:32:30;;;;;;;2.00;0.85;;;;;;;14.78;69.79;101429.63;4931920;29;20044;-73
2022/06/30 10:35:07;;;;;;;0.73;0.60;;;;;;;14.78;70.41;101423.56;4935547;29;20494;-74
2022/06/30 10:37:42;;;;;;;1.38;0.68;;;;;;;14.75;69.92;101424.38;4928982;29;20039;-73
2022/06/30 10:40:21;;;;;;;1.27;1.00;;;;;;;14.72;70.22;101424.28;4938625;29;20047;-73
2022/06/30 10:42:52;;;;;;;0.75;0.52;;;;;;;14.69;70.45;101413.81;4934327;29;20094;-72
2022/06/30 10:45:54;;;;;;;1.13;0.77;;;;;;;14.68;70.13;101417.22;4931061;29;20048;-74
2022/06/30 10:48:24;;;;;;;1.90;0.87;;;;;;;14.65;70.31;101414.56;4927511;29;20115;-74
2022/06/30 10:50:53;;;;;;;0.80;0.73;;;;;;;14.63;70.57;101424.06;4933382;29;20118;-73
2022/06/30 10:53:53;;;;;;;1.55;0.90;;;;;;;14.62;70.78;101414.50;4930983;29;20052;-73
2022/06/30 10:56:23;;;;;;;1.20;0.70;;;;;;;14.60;71.16;101421.41;4922085;29;20068;-73
2022/06/30 10:59:14;;;;;;;1.05;0.80;;;;;;;14.59;71.12;101417.00;4931611;29;20079;-72
2022/06/30 11:02:23;;;;;;;0.85;0.73;;;;;;;14.59;71.85;101427.44;4921692;29;20062;-72
2022/06/30 11:05:08;;;;;;;1.15;0.75;;;;;;;14.57;71.08;101418.72;4932675;29;20060;-73
2022/06/30 11:07:37;;;;;;;1.17;0.65;;;;;;;14.58;72.28;101417.88;4934233;29;20158;-74
2022/06/30 11:10:07;;;;;;;1.65;0.70;;;;;;;14.58;72.05;101420.47;4941854;29;20059;-74
2022/06/30 11:12:58;;;;;;;2.83;0.70;;;;;;;14.58;71.48;101412.66;4941365;29;20130;-75
2022/06/30 11:15:58;;;;;;;0.93;0.70;;;;;;;14.58;71.54;101420.47;4940816;29;20056;-74
2022/06/30 11:18:27;;;;;;;0.82;0.60;;;;;;;14.56;71.66;101406.53;4926928;29;20063;-75
2022/06/30 11:20:58;;;;;;;1.17;0.70;;;;;;;14.53;72.34;101409.91;4930965;29;20434;-74
2022/06/30 11:23:27;;;;;;;0.63;0.63;;;;;;;14.51;72.50;101405.53;4933073;29;20115;-75
2022/06/30 11:28:42;;;;;;;1.00;0.82;;;;;;;14.50;72.62;101414.16;4938321;28;20062;-74
2022/06/30 11:31:29;;;;;;;1.90;0.80;;;;;;;14.46;72.14;101414.09;4934567;29;20542;-75
2022/06/30 11:34:00;;;;;;;1.35;0.80;;;;;;;14.44;72.42;101421.00;4930103;29;20055;-75
2022/06/30 11:36:31;;;;;;;1.10;0.70;;;;;;;14.40;72.74;101421.75;4937428;29;20055;-75
2022/06/30 11:39:00;;;;;;;0.90;0.75;;;;;;;14.31;72.81;101426.72;4944204;29;20051;-74
2022/06/30 11:44:16;;;;;;;1.25;0.82;;;;;;;14.26;73.46;101423.13;4933999;29;20061;-74
2022/06/30 11:46:57;;;;;;;1.08;0.80;;;;;;;14.25;73.44;101424.88;4929473;29;20448;-73
2022/06/30 11:49:28;;;;;;;0.80;0.70;;;;;;;14.21;73.38;101420.44;4923112;29;20066;-74
2022/06/30 11:51:59;;;;;;;1.88;0.73;;;;;;;14.21;73.17;101428.22;4934570;29;20163;-73
2022/06/30 11:54:30;;;;;;;2.50;0.80;;;;;;;14.19;73.29;101423.84;4940042;29;20120;-74
2022/06/30 11:57:00;;;;;;;0.95;0.80;;;;;;;14.19;73.60;101432.50;4931866;29;20103;-73
2022/06/30 11:59:28;;;;;;;1.00;0.85;;;;;;;14.18;73.54;101435.09;4943204;29;20067;-73